sensor_id;sensor_type;location;lat;lon;timestamp;P1;durP1;ratioP1;P2;durP2;ratioP2
23290;SDS011;11814;44.686;10.842;2023-12-29T00:00:05;95.55;;;67.25;;
23290;SDS011;11814;44.686;10.842;2023-12-29T00:02:31;91.30;;;64.97;;
23290;SDS011;11814;44.686;10.842;2023-12-29T00:04:57;88.93;;;61.58;;
23290;SDS011;11814;44.686;10.842;2023-12-29T00:07:22;88.43;;;60.08;;
23290;SDS011;11814;44.686;10.842;2023-12-29T00:09:48;78.50;;;56.35;;
23290;SDS011;11814;44.686;10.842;2023-12-29T00:12:13;79.78;;;57.70;;
23290;SDS011;11814;44.686;10.842;2023-12-29T00:14:39;74.78;;;54.33;;
23290;SDS011;11814;44.686;10.842;2023-12-29T00:17:05;73.43;;;53.78;;
23290;SDS011;11814;44.686;10.842;2023-12-29T00:19:30;75.35;;;55.88;;
23290;SDS011;11814;44.686;10.842;2023-12-29T00:21:56;73.75;;;54.88;;
23290;SDS011;11814;44.686;10.842;2023-12-29T00:24:22;83.00;;;56.47;;
23290;SDS011;11814;44.686;10.842;2023-12-29T00:26:47;81.57;;;58.20;;
23290;SDS011;11814;44.686;10.842;2023-12-29T00:29:16;79.13;;;57.53;;
23290;SDS011;11814;44.686;10.842;2023-12-29T00:31:42;79.18;;;57.97;;
23290;SDS011;11814;44.686;10.842;2023-12-29T00:34:08;78.72;;;58.63;;
23290;SDS011;11814;44.686;10.842;2023-12-29T00:36:33;79.65;;;58.38;;
23290;SDS011;11814;44.686;10.842;2023-12-29T00:38:59;78.15;;;57.10;;
23290;SDS011;11814;44.686;10.842;2023-12-29T00:41:24;81.05;;;57.00;;
23290;SDS011;11814;44.686;10.842;2023-12-29T00:43:50;83.97;;;62.28;;
23290;SDS011;11814;44.686;10.842;2023-12-29T00:46:16;85.47;;;62.33;;
23290;SDS011;11814;44.686;10.842;2023-12-29T00:48:41;83.57;;;62.40;;
23290;SDS011;11814;44.686;10.842;2023-12-29T00:51:07;90.20;;;62.83;;
23290;SDS011;11814;44.686;10.842;2023-12-29T00:53:34;79.00;;;60.70;;
23290;SDS011;11814;44.686;10.842;2023-12-29T00:56:00;82.57;;;64.13;;
23290;SDS011;11814;44.686;10.842;2023-12-29T00:58:26;90.40;;;64.85;;
23290;SDS011;11814;44.686;10.842;2023-12-29T01:00:51;85.47;;;63.78;;
23290;SDS011;11814;44.686;10.842;2023-12-29T01:03:17;96.10;;;68.93;;
23290;SDS011;11814;44.686;10.842;2023-12-29T01:05:43;81.63;;;62.13;;
23290;SDS011;11814;44.686;10.842;2023-12-29T01:08:08;95.07;;;68.32;;
23290;SDS011;11814;44.686;10.842;2023-12-29T01:10:34;98.88;;;69.28;;
23290;SDS011;11814;44.686;10.842;2023-12-29T01:13:00;98.75;;;70.57;;
23290;SDS011;11814;44.686;10.842;2023-12-29T01:15:25;96.22;;;68.22;;
23290;SDS011;11814;44.686;10.842;2023-12-29T01:17:51;93.38;;;68.63;;
23290;SDS011;11814;44.686;10.842;2023-12-29T01:20:17;91.18;;;66.22;;
23290;SDS011;11814;44.686;10.842;2023-12-29T01:22:42;92.25;;;68.55;;
23290;SDS011;11814;44.686;10.842;2023-12-29T01:25:08;85.47;;;62.30;;
23290;SDS011;11814;44.686;10.842;2023-12-29T01:27:33;85.32;;;65.80;;
23290;SDS011;11814;44.686;10.842;2023-12-29T01:29:59;88.85;;;64.70;;
23290;SDS011;11814;44.686;10.842;2023-12-29T01:32:25;84.22;;;62.22;;
23290;SDS011;11814;44.686;10.842;2023-12-29T01:34:51;86.40;;;66.07;;
23290;SDS011;11814;44.686;10.842;2023-12-29T01:37:18;93.55;;;67.22;;
23290;SDS011;11814;44.686;10.842;2023-12-29T01:39:43;91.18;;;68.72;;
23290;SDS011;11814;44.686;10.842;2023-12-29T01:42:09;93.85;;;69.45;;
23290;SDS011;11814;44.686;10.842;2023-12-29T01:44:36;100.97;;;75.22;;
23290;SDS011;11814;44.686;10.842;2023-12-29T01:47:01;100.13;;;71.88;;
23290;SDS011;11814;44.686;10.842;2023-12-29T01:49:31;97.55;;;71.97;;
23290;SDS011;11814;44.686;10.842;2023-12-29T01:51:58;109.00;;;75.20;;
23290;SDS011;11814;44.686;10.842;2023-12-29T01:54:32;97.88;;;71.00;;
23290;SDS011;11814;44.686;10.842;2023-12-29T01:57:01;102.35;;;72.32;;
23290;SDS011;11814;44.686;10.842;2023-12-29T01:59:28;100.78;;;72.18;;
23290;SDS011;11814;44.686;10.842;2023-12-29T02:01:54;105.45;;;76.15;;
23290;SDS011;11814;44.686;10.842;2023-12-29T02:04:25;94.07;;;68.93;;
23290;SDS011;11814;44.686;10.842;2023-12-29T02:06:52;103.38;;;74.72;;
23290;SDS011;11814;44.686;10.842;2023-12-29T02:09:18;101.65;;;73.32;;
23290;SDS011;11814;44.686;10.842;2023-12-29T02:11:44;94.70;;;71.80;;
23290;SDS011;11814;44.686;10.842;2023-12-29T02:14:10;94.13;;;70.18;;
23290;SDS011;11814;44.686;10.842;2023-12-29T02:19:40;98.00;;;68.40;;
23290;SDS011;11814;44.686;10.842;2023-12-29T02:22:09;96.50;;;68.95;;
23290;SDS011;11814;44.686;10.842;2023-12-29T02:24:35;100.20;;;72.13;;
23290;SDS011;11814;44.686;10.842;2023-12-29T02:30:09;100.72;;;71.13;;
23290;SDS011;11814;44.686;10.842;2023-12-29T02:32:47;98.78;;;71.13;;
23290;SDS011;11814;44.686;10.842;2023-12-29T02:35:17;97.07;;;71.90;;
23290;SDS011;11814;44.686;10.842;2023-12-29T02:37:48;107.60;;;76.22;;
23290;SDS011;11814;44.686;10.842;2023-12-29T02:40:14;98.10;;;70.60;;
23290;SDS011;11814;44.686;10.842;2023-12-29T02:42:47;102.90;;;73.38;;
23290;SDS011;11814;44.686;10.842;2023-12-29T02:45:14;102.45;;;72.88;;
23290;SDS011;11814;44.686;10.842;2023-12-29T02:47:40;102.70;;;72.45;;
23290;SDS011;11814;44.686;10.842;2023-12-29T02:50:07;98.95;;;68.82;;
23290;SDS011;11814;44.686;10.842;2023-12-29T02:52:34;94.75;;;66.80;;
23290;SDS011;11814;44.686;10.842;2023-12-29T02:54:59;94.70;;;68.78;;
23290;SDS011;11814;44.686;10.842;2023-12-29T02:57:25;90.93;;;67.53;;
23290;SDS011;11814;44.686;10.842;2023-12-29T02:59:50;94.85;;;67.63;;
23290;SDS011;11814;44.686;10.842;2023-12-29T03:02:16;94.80;;;69.18;;
23290;SDS011;11814;44.686;10.842;2023-12-29T03:04:42;94.22;;;67.63;;
23290;SDS011;11814;44.686;10.842;2023-12-29T03:07:07;93.53;;;68.20;;
23290;SDS011;11814;44.686;10.842;2023-12-29T03:09:33;93.90;;;66.22;;
23290;SDS011;11814;44.686;10.842;2023-12-29T03:11:59;94.38;;;66.57;;
23290;SDS011;11814;44.686;10.842;2023-12-29T03:14:24;97.05;;;66.43;;
23290;SDS011;11814;44.686;10.842;2023-12-29T03:16:50;94.63;;;67.18;;
23290;SDS011;11814;44.686;10.842;2023-12-29T03:19:16;94.75;;;66.55;;
23290;SDS011;11814;44.686;10.842;2023-12-29T03:21:41;92.78;;;64.93;;
23290;SDS011;11814;44.686;10.842;2023-12-29T03:24:07;92.05;;;62.53;;
23290;SDS011;11814;44.686;10.842;2023-12-29T03:26:32;92.05;;;62.65;;
23290;SDS011;11814;44.686;10.842;2023-12-29T03:28:58;90.90;;;62.30;;
23290;SDS011;11814;44.686;10.842;2023-12-29T03:31:24;84.32;;;61.85;;
23290;SDS011;11814;44.686;10.842;2023-12-29T03:33:49;94.30;;;62.28;;
23290;SDS011;11814;44.686;10.842;2023-12-29T03:36:15;89.47;;;62.35;;
23290;SDS011;11814;44.686;10.842;2023-12-29T03:38:40;89.45;;;62.15;;
23290;SDS011;11814;44.686;10.842;2023-12-29T03:41:06;84.53;;;59.45;;
23290;SDS011;11814;44.686;10.842;2023-12-29T03:43:32;86.93;;;60.65;;
23290;SDS011;11814;44.686;10.842;2023-12-29T03:45:57;88.25;;;62.72;;
23290;SDS011;11814;44.686;10.842;2023-12-29T03:48:23;84.53;;;60.55;;
23290;SDS011;11814;44.686;10.842;2023-12-29T03:50:49;83.72;;;58.85;;
23290;SDS011;11814;44.686;10.842;2023-12-29T03:53:14;90.22;;;61.03;;
23290;SDS011;11814;44.686;10.842;2023-12-29T03:55:41;89.70;;;59.08;;
23290;SDS011;11814;44.686;10.842;2023-12-29T03:58:06;88.07;;;60.08;;
23290;SDS011;11814;44.686;10.842;2023-12-29T04:00:32;97.13;;;63.65;;
23290;SDS011;11814;44.686;10.842;2023-12-29T04:02:58;95.95;;;65.97;;
23290;SDS011;11814;44.686;10.842;2023-12-29T04:05:23;91.00;;;61.35;;
23290;SDS011;11814;44.686;10.842;2023-12-29T04:07:49;90.38;;;61.47;;
23290;SDS011;11814;44.686;10.842;2023-12-29T04:10:15;90.50;;;63.55;;
23290;SDS011;11814;44.686;10.842;2023-12-29T04:12:40;82.53;;;59.47;;
23290;SDS011;11814;44.686;10.842;2023-12-29T04:15:06;83.78;;;57.83;;
23290;SDS011;11814;44.686;10.842;2023-12-29T04:17:32;84.32;;;60.08;;
23290;SDS011;11814;44.686;10.842;2023-12-29T04:19:58;90.65;;;60.22;;
23290;SDS011;11814;44.686;10.842;2023-12-29T04:22:24;86.57;;;59.03;;
23290;SDS011;11814;44.686;10.842;2023-12-29T04:24:50;81.47;;;58.42;;
23290;SDS011;11814;44.686;10.842;2023-12-29T04:27:16;91.90;;;59.60;;
23290;SDS011;11814;44.686;10.842;2023-12-29T04:29:43;83.28;;;58.05;;
23290;SDS011;11814;44.686;10.842;2023-12-29T04:32:09;95.57;;;61.88;;
23290;SDS011;11814;44.686;10.842;2023-12-29T04:34:35;86.18;;;60.60;;
23290;SDS011;11814;44.686;10.842;2023-12-29T04:37:01;93.70;;;61.60;;
23290;SDS011;11814;44.686;10.842;2023-12-29T04:39:26;85.82;;;60.95;;
23290;SDS011;11814;44.686;10.842;2023-12-29T04:41:52;95.50;;;63.25;;
23290;SDS011;11814;44.686;10.842;2023-12-29T04:44:17;92.85;;;62.58;;
23290;SDS011;11814;44.686;10.842;2023-12-29T04:46:43;89.00;;;61.10;;
23290;SDS011;11814;44.686;10.842;2023-12-29T04:49:09;86.43;;;57.95;;
23290;SDS011;11814;44.686;10.842;2023-12-29T04:51:34;81.63;;;57.33;;
23290;SDS011;11814;44.686;10.842;2023-12-29T04:54:01;74.07;;;53.25;;
23290;SDS011;11814;44.686;10.842;2023-12-29T04:56:27;77.80;;;53.60;;
23290;SDS011;11814;44.686;10.842;2023-12-29T04:58:52;79.93;;;54.33;;
23290;SDS011;11814;44.686;10.842;2023-12-29T05:01:18;67.68;;;47.42;;
23290;SDS011;11814;44.686;10.842;2023-12-29T05:03:44;63.67;;;47.15;;
23290;SDS011;11814;44.686;10.842;2023-12-29T05:06:09;68.18;;;46.83;;
23290;SDS011;11814;44.686;10.842;2023-12-29T05:08:35;65.47;;;46.47;;
23290;SDS011;11814;44.686;10.842;2023-12-29T05:11:01;64.00;;;43.03;;
23290;SDS011;11814;44.686;10.842;2023-12-29T05:13:26;59.90;;;41.55;;
23290;SDS011;11814;44.686;10.842;2023-12-29T05:15:52;52.97;;;36.83;;
23290;SDS011;11814;44.686;10.842;2023-12-29T05:18:17;46.00;;;32.45;;
23290;SDS011;11814;44.686;10.842;2023-12-29T05:20:43;45.40;;;32.15;;
23290;SDS011;11814;44.686;10.842;2023-12-29T05:23:09;45.05;;;31.33;;
23290;SDS011;11814;44.686;10.842;2023-12-29T05:25:35;39.58;;;28.67;;
23290;SDS011;11814;44.686;10.842;2023-12-29T05:28:00;41.95;;;29.88;;
23290;SDS011;11814;44.686;10.842;2023-12-29T05:30:26;40.50;;;28.98;;
23290;SDS011;11814;44.686;10.842;2023-12-29T05:32:52;41.55;;;27.20;;
23290;SDS011;11814;44.686;10.842;2023-12-29T05:35:18;42.03;;;29.73;;
23290;SDS011;11814;44.686;10.842;2023-12-29T05:37:44;34.17;;;25.35;;
23290;SDS011;11814;44.686;10.842;2023-12-29T05:40:09;37.05;;;26.23;;
23290;SDS011;11814;44.686;10.842;2023-12-29T05:42:36;37.03;;;26.40;;
23290;SDS011;11814;44.686;10.842;2023-12-29T05:45:01;35.60;;;24.42;;
23290;SDS011;11814;44.686;10.842;2023-12-29T05:47:27;35.55;;;24.42;;
23290;SDS011;11814;44.686;10.842;2023-12-29T05:49:53;35.13;;;24.38;;
23290;SDS011;11814;44.686;10.842;2023-12-29T05:52:18;31.58;;;21.83;;
23290;SDS011;11814;44.686;10.842;2023-12-29T05:54:44;31.15;;;22.42;;
23290;SDS011;11814;44.686;10.842;2023-12-29T05:57:10;32.92;;;22.15;;
23290;SDS011;11814;44.686;10.842;2023-12-29T05:59:35;30.88;;;20.95;;
23290;SDS011;11814;44.686;10.842;2023-12-29T06:02:01;27.50;;;20.65;;
23290;SDS011;11814;44.686;10.842;2023-12-29T06:04:27;29.40;;;18.70;;
23290;SDS011;11814;44.686;10.842;2023-12-29T06:06:53;28.65;;;18.95;;
23290;SDS011;11814;44.686;10.842;2023-12-29T06:09:18;26.00;;;18.60;;
23290;SDS011;11814;44.686;10.842;2023-12-29T06:11:44;27.27;;;17.77;;
23290;SDS011;11814;44.686;10.842;2023-12-29T06:14:10;25.27;;;18.58;;
23290;SDS011;11814;44.686;10.842;2023-12-29T06:16:35;29.27;;;18.73;;
23290;SDS011;11814;44.686;10.842;2023-12-29T06:19:01;28.50;;;18.55;;
23290;SDS011;11814;44.686;10.842;2023-12-29T06:21:27;26.15;;;19.20;;
23290;SDS011;11814;44.686;10.842;2023-12-29T06:23:52;28.88;;;20.42;;
23290;SDS011;11814;44.686;10.842;2023-12-29T06:26:18;30.60;;;21.77;;
23290;SDS011;11814;44.686;10.842;2023-12-29T06:28:45;34.60;;;20.63;;
23290;SDS011;11814;44.686;10.842;2023-12-29T06:31:11;31.70;;;22.73;;
23290;SDS011;11814;44.686;10.842;2023-12-29T06:33:43;29.40;;;20.88;;
23290;SDS011;11814;44.686;10.842;2023-12-29T06:36:09;34.00;;;21.55;;
23290;SDS011;11814;44.686;10.842;2023-12-29T06:38:35;29.85;;;21.48;;
23290;SDS011;11814;44.686;10.842;2023-12-29T06:41:02;34.80;;;22.60;;
23290;SDS011;11814;44.686;10.842;2023-12-29T06:43:29;40.47;;;24.40;;
23290;SDS011;11814;44.686;10.842;2023-12-29T06:45:55;40.22;;;24.02;;
23290;SDS011;11814;44.686;10.842;2023-12-29T06:48:21;32.83;;;23.13;;
23290;SDS011;11814;44.686;10.842;2023-12-29T06:50:46;37.35;;;24.00;;
23290;SDS011;11814;44.686;10.842;2023-12-29T06:53:12;35.13;;;22.27;;
23290;SDS011;11814;44.686;10.842;2023-12-29T06:55:38;37.80;;;25.02;;
23290;SDS011;11814;44.686;10.842;2023-12-29T06:58:07;43.42;;;27.85;;
23290;SDS011;11814;44.686;10.842;2023-12-29T07:00:32;41.25;;;25.45;;
23290;SDS011;11814;44.686;10.842;2023-12-29T07:02:59;35.85;;;24.02;;
23290;SDS011;11814;44.686;10.842;2023-12-29T07:05:25;31.02;;;20.83;;
23290;SDS011;11814;44.686;10.842;2023-12-29T07:07:51;33.08;;;21.30;;
23290;SDS011;11814;44.686;10.842;2023-12-29T07:10:16;39.25;;;25.15;;
23290;SDS011;11814;44.686;10.842;2023-12-29T07:12:42;45.53;;;26.75;;
23290;SDS011;11814;44.686;10.842;2023-12-29T07:15:08;39.20;;;26.58;;
23290;SDS011;11814;44.686;10.842;2023-12-29T07:17:34;41.30;;;26.75;;
23290;SDS011;11814;44.686;10.842;2023-12-29T07:20:00;40.55;;;25.48;;
23290;SDS011;11814;44.686;10.842;2023-12-29T07:22:25;35.05;;;24.08;;
23290;SDS011;11814;44.686;10.842;2023-12-29T07:24:51;37.50;;;23.95;;
23290;SDS011;11814;44.686;10.842;2023-12-29T07:27:18;38.22;;;22.83;;
23290;SDS011;11814;44.686;10.842;2023-12-29T07:29:44;28.42;;;19.52;;
23290;SDS011;11814;44.686;10.842;2023-12-29T07:32:09;29.63;;;20.60;;
23290;SDS011;11814;44.686;10.842;2023-12-29T07:34:35;36.72;;;21.45;;
23290;SDS011;11814;44.686;10.842;2023-12-29T07:37:01;32.80;;;20.98;;
23290;SDS011;11814;44.686;10.842;2023-12-29T07:39:26;28.38;;;20.35;;
23290;SDS011;11814;44.686;10.842;2023-12-29T07:41:52;28.75;;;18.75;;
23290;SDS011;11814;44.686;10.842;2023-12-29T07:44:18;29.52;;;20.40;;
23290;SDS011;11814;44.686;10.842;2023-12-29T07:46:44;32.65;;;19.50;;
23290;SDS011;11814;44.686;10.842;2023-12-29T07:49:10;30.55;;;18.23;;
23290;SDS011;11814;44.686;10.842;2023-12-29T07:51:42;24.75;;;17.85;;
23290;SDS011;11814;44.686;10.842;2023-12-29T07:54:09;24.20;;;18.02;;
23290;SDS011;11814;44.686;10.842;2023-12-29T07:56:35;26.10;;;17.98;;
23290;SDS011;11814;44.686;10.842;2023-12-29T07:59:02;25.33;;;17.25;;
23290;SDS011;11814;44.686;10.842;2023-12-29T08:01:28;23.38;;;16.73;;
23290;SDS011;11814;44.686;10.842;2023-12-29T08:03:54;25.20;;;14.73;;
23290;SDS011;11814;44.686;10.842;2023-12-29T08:06:20;26.40;;;16.33;;
23290;SDS011;11814;44.686;10.842;2023-12-29T08:08:45;18.52;;;15.07;;
23290;SDS011;11814;44.686;10.842;2023-12-29T08:11:14;26.73;;;16.55;;
23290;SDS011;11814;44.686;10.842;2023-12-29T08:13:44;20.17;;;16.27;;
23290;SDS011;11814;44.686;10.842;2023-12-29T08:16:10;23.30;;;18.23;;
23290;SDS011;11814;44.686;10.842;2023-12-29T08:18:36;23.85;;;17.35;;
23290;SDS011;11814;44.686;10.842;2023-12-29T08:21:02;24.25;;;16.77;;
23290;SDS011;11814;44.686;10.842;2023-12-29T08:23:28;25.38;;;17.13;;
23290;SDS011;11814;44.686;10.842;2023-12-29T08:25:53;25.02;;;17.23;;
23290;SDS011;11814;44.686;10.842;2023-12-29T08:28:21;19.30;;;15.98;;
23290;SDS011;11814;44.686;10.842;2023-12-29T08:30:46;20.77;;;16.33;;
23290;SDS011;11814;44.686;10.842;2023-12-29T08:33:12;24.42;;;18.08;;
23290;SDS011;11814;44.686;10.842;2023-12-29T08:35:41;24.15;;;17.83;;
23290;SDS011;11814;44.686;10.842;2023-12-29T08:38:07;24.00;;;18.95;;
23290;SDS011;11814;44.686;10.842;2023-12-29T08:40:32;27.58;;;18.58;;
23290;SDS011;11814;44.686;10.842;2023-12-29T08:42:58;26.58;;;19.08;;
23290;SDS011;11814;44.686;10.842;2023-12-29T08:45:25;27.42;;;21.80;;
23290;SDS011;11814;44.686;10.842;2023-12-29T08:47:50;29.67;;;21.83;;
23290;SDS011;11814;44.686;10.842;2023-12-29T08:50:16;29.20;;;24.42;;
23290;SDS011;11814;44.686;10.842;2023-12-29T08:52:42;34.40;;;24.25;;
23290;SDS011;11814;44.686;10.842;2023-12-29T08:55:07;32.35;;;25.05;;
23290;SDS011;11814;44.686;10.842;2023-12-29T08:57:33;32.38;;;26.02;;
23290;SDS011;11814;44.686;10.842;2023-12-29T08:59:59;34.95;;;25.98;;
23290;SDS011;11814;44.686;10.842;2023-12-29T09:02:25;33.22;;;24.42;;
23290;SDS011;11814;44.686;10.842;2023-12-29T09:04:50;34.45;;;25.50;;
23290;SDS011;11814;44.686;10.842;2023-12-29T09:07:16;35.10;;;27.45;;
23290;SDS011;11814;44.686;10.842;2023-12-29T09:09:41;35.83;;;26.50;;
23290;SDS011;11814;44.686;10.842;2023-12-29T09:12:07;36.30;;;25.05;;
23290;SDS011;11814;44.686;10.842;2023-12-29T09:14:33;39.38;;;27.10;;
23290;SDS011;11814;44.686;10.842;2023-12-29T09:16:59;33.03;;;25.42;;
23290;SDS011;11814;44.686;10.842;2023-12-29T09:19:25;34.45;;;27.40;;
23290;SDS011;11814;44.686;10.842;2023-12-29T09:21:51;31.55;;;25.45;;
23290;SDS011;11814;44.686;10.842;2023-12-29T09:24:16;34.67;;;26.80;;
23290;SDS011;11814;44.686;10.842;2023-12-29T09:26:42;37.60;;;29.27;;
23290;SDS011;11814;44.686;10.842;2023-12-29T09:29:08;39.08;;;31.08;;
23290;SDS011;11814;44.686;10.842;2023-12-29T09:31:33;36.10;;;26.90;;
23290;SDS011;11814;44.686;10.842;2023-12-29T09:33:59;33.53;;;26.35;;
23290;SDS011;11814;44.686;10.842;2023-12-29T09:36:25;33.55;;;27.15;;
23290;SDS011;11814;44.686;10.842;2023-12-29T09:38:51;34.40;;;28.85;;
23290;SDS011;11814;44.686;10.842;2023-12-29T09:41:17;33.80;;;28.45;;
23290;SDS011;11814;44.686;10.842;2023-12-29T09:43:45;36.22;;;27.70;;
23290;SDS011;11814;44.686;10.842;2023-12-29T09:46:14;36.55;;;28.73;;
23290;SDS011;11814;44.686;10.842;2023-12-29T09:48:43;37.97;;;28.85;;
23290;SDS011;11814;44.686;10.842;2023-12-29T09:51:11;34.85;;;27.35;;
23290;SDS011;11814;44.686;10.842;2023-12-29T09:53:38;33.63;;;26.00;;
23290;SDS011;11814;44.686;10.842;2023-12-29T09:56:06;33.55;;;26.15;;
23290;SDS011;11814;44.686;10.842;2023-12-29T09:58:33;30.52;;;26.33;;
23290;SDS011;11814;44.686;10.842;2023-12-29T10:01:01;35.72;;;28.38;;
23290;SDS011;11814;44.686;10.842;2023-12-29T10:03:28;37.63;;;26.75;;
23290;SDS011;11814;44.686;10.842;2023-12-29T10:05:54;28.92;;;24.90;;
23290;SDS011;11814;44.686;10.842;2023-12-29T10:08:24;33.45;;;27.15;;
23290;SDS011;11814;44.686;10.842;2023-12-29T10:10:53;29.35;;;25.98;;
23290;SDS011;11814;44.686;10.842;2023-12-29T10:13:20;29.48;;;25.08;;
23290;SDS011;11814;44.686;10.842;2023-12-29T10:15:54;27.67;;;23.67;;
23290;SDS011;11814;44.686;10.842;2023-12-29T10:18:22;32.15;;;25.35;;
23290;SDS011;11814;44.686;10.842;2023-12-29T10:21:12;29.70;;;25.85;;
23290;SDS011;11814;44.686;10.842;2023-12-29T10:24:03;33.53;;;26.35;;
23290;SDS011;11814;44.686;10.842;2023-12-29T10:26:33;29.83;;;23.83;;
23290;SDS011;11814;44.686;10.842;2023-12-29T10:29:00;27.10;;;22.10;;
23290;SDS011;11814;44.686;10.842;2023-12-29T10:31:26;26.38;;;23.08;;
23290;SDS011;11814;44.686;10.842;2023-12-29T10:33:52;27.80;;;22.88;;
23290;SDS011;11814;44.686;10.842;2023-12-29T10:36:17;27.65;;;22.33;;
23290;SDS011;11814;44.686;10.842;2023-12-29T10:38:43;25.80;;;22.27;;
23290;SDS011;11814;44.686;10.842;2023-12-29T10:41:13;26.55;;;21.95;;
23290;SDS011;11814;44.686;10.842;2023-12-29T10:43:43;29.10;;;22.17;;
23290;SDS011;11814;44.686;10.842;2023-12-29T10:46:12;28.38;;;22.48;;
23290;SDS011;11814;44.686;10.842;2023-12-29T10:48:38;26.15;;;21.90;;
23290;SDS011;11814;44.686;10.842;2023-12-29T10:51:04;25.63;;;22.25;;
23290;SDS011;11814;44.686;10.842;2023-12-29T10:53:31;29.85;;;23.17;;
23290;SDS011;11814;44.686;10.842;2023-12-29T10:56:01;30.98;;;23.45;;
23290;SDS011;11814;44.686;10.842;2023-12-29T10:58:28;28.50;;;22.70;;
23290;SDS011;11814;44.686;10.842;2023-12-29T11:00:57;23.65;;;21.10;;
23290;SDS011;11814;44.686;10.842;2023-12-29T11:03:24;23.92;;;21.42;;
23290;SDS011;11814;44.686;10.842;2023-12-29T11:05:51;26.08;;;21.67;;
23290;SDS011;11814;44.686;10.842;2023-12-29T11:08:25;26.63;;;21.45;;
23290;SDS011;11814;44.686;10.842;2023-12-29T11:10:50;26.35;;;21.02;;
23290;SDS011;11814;44.686;10.842;2023-12-29T11:13:16;24.50;;;21.05;;
23290;SDS011;11814;44.686;10.842;2023-12-29T11:15:43;24.45;;;20.75;;
23290;SDS011;11814;44.686;10.842;2023-12-29T11:18:14;24.30;;;20.63;;
23290;SDS011;11814;44.686;10.842;2023-12-29T11:20:43;23.90;;;20.38;;
23290;SDS011;11814;44.686;10.842;2023-12-29T11:23:10;25.10;;;21.85;;
23290;SDS011;11814;44.686;10.842;2023-12-29T11:25:39;23.67;;;21.15;;
23290;SDS011;11814;44.686;10.842;2023-12-29T11:28:08;27.35;;;23.75;;
23290;SDS011;11814;44.686;10.842;2023-12-29T11:30:38;25.40;;;21.42;;
23290;SDS011;11814;44.686;10.842;2023-12-29T11:35:52;23.98;;;20.33;;
23290;SDS011;11814;44.686;10.842;2023-12-29T11:38:24;29.25;;;22.27;;
23290;SDS011;11814;44.686;10.842;2023-12-29T11:43:59;28.65;;;22.35;;
23290;SDS011;11814;44.686;10.842;2023-12-29T11:46:35;23.48;;;20.80;;
23290;SDS011;11814;44.686;10.842;2023-12-29T11:49:08;20.85;;;18.67;;
23290;SDS011;11814;44.686;10.842;2023-12-29T11:54:08;26.63;;;20.48;;
23290;SDS011;11814;44.686;10.842;2023-12-29T11:56:37;28.25;;;22.30;;
23290;SDS011;11814;44.686;10.842;2023-12-29T11:59:12;29.00;;;20.63;;
23290;SDS011;11814;44.686;10.842;2023-12-29T12:01:38;27.27;;;22.00;;
23290;SDS011;11814;44.686;10.842;2023-12-29T12:04:25;24.13;;;19.25;;
23290;SDS011;11814;44.686;10.842;2023-12-29T12:07:15;24.35;;;19.08;;
23290;SDS011;11814;44.686;10.842;2023-12-29T12:09:42;25.23;;;20.38;;
23290;SDS011;11814;44.686;10.842;2023-12-29T12:12:08;25.23;;;20.67;;
23290;SDS011;11814;44.686;10.842;2023-12-29T12:14:48;24.20;;;20.40;;
23290;SDS011;11814;44.686;10.842;2023-12-29T12:17:26;25.33;;;20.50;;
23290;SDS011;11814;44.686;10.842;2023-12-29T12:20:17;26.13;;;20.08;;
23290;SDS011;11814;44.686;10.842;2023-12-29T12:22:42;23.45;;;19.20;;
23290;SDS011;11814;44.686;10.842;2023-12-29T12:25:11;23.10;;;20.23;;
23290;SDS011;11814;44.686;10.842;2023-12-29T12:27:38;24.30;;;20.45;;
23290;SDS011;11814;44.686;10.842;2023-12-29T12:30:04;26.02;;;21.08;;
23290;SDS011;11814;44.686;10.842;2023-12-29T12:32:30;25.75;;;20.98;;
23290;SDS011;11814;44.686;10.842;2023-12-29T12:34:57;28.63;;;22.60;;
23290;SDS011;11814;44.686;10.842;2023-12-29T12:37:23;25.48;;;21.48;;
23290;SDS011;11814;44.686;10.842;2023-12-29T12:39:53;24.30;;;21.63;;
23290;SDS011;11814;44.686;10.842;2023-12-29T12:42:20;29.90;;;22.20;;
23290;SDS011;11814;44.686;10.842;2023-12-29T12:44:48;26.77;;;20.42;;
23290;SDS011;11814;44.686;10.842;2023-12-29T12:47:23;26.08;;;20.00;;
23290;SDS011;11814;44.686;10.842;2023-12-29T12:50:10;22.10;;;19.02;;
23290;SDS011;11814;44.686;10.842;2023-12-29T12:52:37;23.52;;;20.15;;
23290;SDS011;11814;44.686;10.842;2023-12-29T12:55:03;23.83;;;20.27;;
23290;SDS011;11814;44.686;10.842;2023-12-29T12:57:30;26.73;;;20.67;;
23290;SDS011;11814;44.686;10.842;2023-12-29T12:59:56;25.67;;;20.35;;
23290;SDS011;11814;44.686;10.842;2023-12-29T13:02:23;25.80;;;21.33;;
23290;SDS011;11814;44.686;10.842;2023-12-29T13:04:50;27.73;;;21.38;;
23290;SDS011;11814;44.686;10.842;2023-12-29T13:07:17;23.05;;;19.73;;
23290;SDS011;11814;44.686;10.842;2023-12-29T13:09:46;29.50;;;21.83;;
23290;SDS011;11814;44.686;10.842;2023-12-29T13:12:15;29.58;;;23.15;;
23290;SDS011;11814;44.686;10.842;2023-12-29T13:14:41;28.52;;;22.23;;
23290;SDS011;11814;44.686;10.842;2023-12-29T13:17:11;32.75;;;21.83;;
23290;SDS011;11814;44.686;10.842;2023-12-29T13:19:39;30.80;;;23.73;;
23290;SDS011;11814;44.686;10.842;2023-12-29T13:22:06;29.80;;;22.50;;
23290;SDS011;11814;44.686;10.842;2023-12-29T13:24:33;33.92;;;24.23;;
23290;SDS011;11814;44.686;10.842;2023-12-29T13:27:06;27.25;;;22.30;;
23290;SDS011;11814;44.686;10.842;2023-12-29T13:29:33;30.33;;;23.90;;
23290;SDS011;11814;44.686;10.842;2023-12-29T13:32:03;31.65;;;22.60;;
23290;SDS011;11814;44.686;10.842;2023-12-29T13:40:14;24.20;;;18.40;;
23290;SDS011;11814;44.686;10.842;2023-12-29T13:42:43;24.52;;;19.33;;
23290;SDS011;11814;44.686;10.842;2023-12-29T13:45:12;26.02;;;19.63;;
23290;SDS011;11814;44.686;10.842;2023-12-29T13:47:40;24.17;;;17.73;;
23290;SDS011;11814;44.686;10.842;2023-12-29T13:50:08;24.13;;;17.95;;
23290;SDS011;11814;44.686;10.842;2023-12-29T13:52:35;26.45;;;17.55;;
23290;SDS011;11814;44.686;10.842;2023-12-29T13:55:02;30.95;;;19.38;;
23290;SDS011;11814;44.686;10.842;2023-12-29T13:57:35;24.05;;;18.70;;
23290;SDS011;11814;44.686;10.842;2023-12-29T14:00:17;23.58;;;18.40;;
23290;SDS011;11814;44.686;10.842;2023-12-29T14:10:30;27.33;;;20.05;;
23290;SDS011;11814;44.686;10.842;2023-12-29T14:13:33;24.73;;;19.42;;
23290;SDS011;11814;44.686;10.842;2023-12-29T14:15:52;30.13;;;20.95;;
23290;SDS011;11814;44.686;10.842;2023-12-29T14:20:46;32.45;;;22.73;;
23290;SDS011;11814;44.686;10.842;2023-12-29T14:23:11;29.65;;;21.85;;
23290;SDS011;11814;44.686;10.842;2023-12-29T14:25:38;30.27;;;22.90;;
23290;SDS011;11814;44.686;10.842;2023-12-29T14:28:13;32.78;;;23.52;;
23290;SDS011;11814;44.686;10.842;2023-12-29T14:30:41;32.90;;;23.40;;
23290;SDS011;11814;44.686;10.842;2023-12-29T14:33:06;29.42;;;22.75;;
23290;SDS011;11814;44.686;10.842;2023-12-29T14:35:32;32.92;;;24.80;;
23290;SDS011;11814;44.686;10.842;2023-12-29T14:37:58;30.15;;;23.58;;